createdAt,value
2024-04-08T00:01:37.970Z,65.28
2024-04-08T00:04:05.117Z,65.21
2024-04-08T00:06:31.827Z,65.49
2024-04-08T00:08:59.267Z,65.37
2024-04-08T00:11:26.059Z,65.49
2024-04-08T00:13:52.913Z,65.62
2024-04-08T00:16:19.842Z,65.89
2024-04-08T00:18:46.624Z,65.62
2024-04-08T00:21:13.354Z,65.81
2024-04-08T00:23:40.334Z,66.08
2024-04-08T00:26:07.347Z,65.94
2024-04-08T00:28:38.888Z,66.18
2024-04-08T00:31:07.797Z,66.13
2024-04-08T00:33:35.654Z,66.25
2024-04-08T00:36:05.566Z,66.31
2024-04-08T00:38:32.562Z,66.61
2024-04-08T00:41:04.075Z,66.42
2024-04-08T00:43:31.333Z,66.79
2024-04-08T00:46:00.795Z,66.58
2024-04-08T00:48:27.984Z,66.79
2024-04-08T00:50:55.453Z,66.83
2024-04-08T00:53:23.696Z,66.82
2024-04-08T00:55:52.863Z,67.00
2024-04-08T00:58:20.081Z,66.67
2024-04-08T01:00:46.998Z,66.95
2024-04-08T01:03:14.154Z,66.99
2024-04-08T01:05:42.103Z,67.03
2024-04-08T01:08:09.282Z,66.92
2024-04-08T01:10:36.493Z,66.58
2024-04-08T01:13:03.192Z,66.95
2024-04-08T01:15:30.356Z,67.00
2024-04-08T01:17:57.487Z,67.09
2024-04-08T01:20:24.259Z,66.88
2024-04-08T01:22:55.259Z,66.77
2024-04-08T01:25:22.076Z,66.73
2024-04-08T01:27:48.977Z,67.04
2024-04-08T01:30:22.734Z,67.01
2024-04-08T01:32:50.142Z,67.03
2024-04-08T01:35:17.061Z,67.17
2024-04-08T01:37:43.941Z,67.15
2024-04-08T01:40:11.009Z,67.13
2024-04-08T01:42:37.754Z,67.26
2024-04-08T01:45:04.824Z,67.30
2024-04-08T01:47:31.668Z,67.31
2024-04-08T01:49:58.512Z,67.48
2024-04-08T01:52:25.477Z,67.33
2024-04-08T01:54:52.217Z,67.67
2024-04-08T01:57:18.935Z,67.87
2024-04-08T01:59:45.979Z,68.02
2024-04-08T02:02:12.765Z,68.25
2024-04-08T02:04:39.495Z,68.33
2024-04-08T02:07:06.244Z,68.68
2024-04-08T02:09:32.925Z,69.22
2024-04-08T02:11:59.981Z,69.41
2024-04-08T02:14:26.991Z,69.82
2024-04-08T02:16:53.686Z,70.11
2024-04-08T02:19:20.409Z,70.32
2024-04-08T02:21:47.364Z,71.07
2024-04-08T02:24:14.805Z,70.98
2024-04-08T02:26:41.590Z,71.86
2024-04-08T02:29:08.474Z,72.40
2024-04-08T02:31:35.170Z,72.68
2024-04-08T02:34:01.936Z,73.26
2024-04-08T02:36:29.570Z,73.57
2024-04-08T02:38:56.371Z,74.11
2024-04-08T02:41:23.156Z,75.20
2024-04-08T02:43:50.205Z,75.70
2024-04-08T02:46:16.861Z,75.53
2024-04-08T02:48:43.550Z,75.93
2024-04-08T02:51:11.009Z,76.00
2024-04-08T02:53:38.097Z,76.48
2024-04-08T02:56:08.351Z,76.68
2024-04-08T02:58:35.261Z,76.87
2024-04-08T03:01:13.542Z,77.55
2024-04-08T03:03:40.739Z,77.18
2024-04-08T03:06:17.110Z,78.02
2024-04-08T03:08:44.596Z,78.11
2024-04-08T03:11:11.599Z,78.28
2024-04-08T03:13:40.407Z,78.57
2024-04-08T03:16:07.638Z,78.75
2024-04-08T03:18:34.380Z,78.83
2024-04-08T03:21:03.357Z,79.73
2024-04-08T03:23:31.454Z,79.81
2024-04-08T03:26:02.474Z,80.14
2024-04-08T03:28:29.782Z,80.14
2024-04-08T03:30:57.888Z,80.41
2024-04-08T03:33:27.931Z,80.33
2024-04-08T03:35:54.897Z,81.02
2024-04-08T03:38:21.711Z,81.08
2024-04-08T03:40:59.166Z,81.67
2024-04-08T03:43:26.056Z,81.56
2024-04-08T03:45:52.778Z,81.60
2024-04-08T03:48:19.468Z,82.24
2024-04-08T03:50:46.508Z,82.21
2024-04-08T03:53:13.642Z,82.02
2024-04-08T03:55:41.046Z,82.58
2024-04-08T03:58:09.146Z,82.33
2024-04-08T04:00:35.960Z,82.47
2024-04-08T04:03:02.702Z,82.68
2024-04-08T04:05:29.584Z,82.88
2024-04-08T04:07:57.809Z,83.09
2024-04-08T04:10:24.597Z,83.19
2024-04-08T04:12:51.453Z,83.13
2024-04-08T04:15:18.349Z,83.42
2024-04-08T04:17:45.225Z,83.55
2024-04-08T04:20:15.804Z,83.57
2024-04-08T04:22:42.790Z,84.97
2024-04-08T04:25:09.558Z,84.16
2024-04-08T04:27:36.464Z,84.17
2024-04-08T04:30:03.978Z,84.18
2024-04-08T04:32:30.703Z,84.16
2024-04-08T04:34:57.539Z,84.34
2024-04-08T04:37:24.244Z,84.38
2024-04-08T04:39:50.965Z,84.43
2024-04-08T04:42:18.583Z,84.68
2024-04-08T04:44:45.427Z,84.53
2024-04-08T04:47:12.203Z,84.67
2024-04-08T04:49:38.908Z,84.71
2024-04-08T04:52:06.096Z,84.73
2024-04-08T04:54:33.737Z,85.13
2024-04-08T04:57:00.651Z,84.96
2024-04-08T04:59:27.430Z,84.95
2024-04-08T05:01:54.161Z,85.32
2024-04-08T05:04:21.052Z,85.36
2024-04-08T05:06:47.758Z,85.34
2024-04-08T05:09:14.582Z,85.17
2024-04-08T05:11:41.665Z,85.76
2024-04-08T05:14:08.480Z,85.75
2024-04-08T05:16:35.220Z,85.88
2024-04-08T05:19:02.303Z,86.11
2024-04-08T05:21:29.335Z,86.48
2024-04-08T05:23:56.467Z,86.44
2024-04-08T05:26:23.505Z,86.62
2024-04-08T05:28:51.016Z,86.57
2024-04-08T05:31:17.785Z,86.79
2024-04-08T05:33:44.827Z,86.84
2024-04-08T05:36:11.541Z,86.79
2024-04-08T05:38:38.299Z,87.30
2024-04-08T05:41:05.271Z,86.91
2024-04-08T05:43:34.833Z,87.04
2024-04-08T05:46:01.643Z,87.05
2024-04-08T05:48:28.463Z,87.44
2024-04-08T05:50:55.273Z,87.24
2024-04-08T05:53:22.087Z,87.34
2024-04-08T05:55:49.013Z,87.33
2024-04-08T05:58:15.799Z,87.17
2024-04-08T06:00:42.810Z,87.15
2024-04-08T06:03:10.167Z,87.35
2024-04-08T06:05:42.090Z,87.50
2024-04-08T06:08:08.914Z,87.30
2024-04-08T06:10:37.557Z,87.34
2024-04-08T06:13:04.906Z,87.38
2024-04-08T06:15:33.360Z,87.30
2024-04-08T06:18:00.555Z,87.27
2024-04-08T06:20:28.529Z,87.07
2024-04-08T06:22:56.033Z,87.10
2024-04-08T06:25:23.086Z,87.08
2024-04-08T06:27:49.928Z,87.14
2024-04-08T06:30:16.910Z,87.07
2024-04-08T06:32:48.470Z,87.21
2024-04-08T06:35:15.304Z,87.24
2024-04-08T06:37:42.087Z,87.07
2024-04-08T06:40:10.703Z,87.22
2024-04-08T06:42:37.467Z,87.26
2024-04-08T06:45:04.601Z,87.14
2024-04-08T06:47:31.588Z,87.61
2024-04-08T06:49:58.326Z,86.80
2024-04-08T06:52:25.628Z,86.91
2024-04-08T06:54:52.677Z,87.07
2024-04-08T06:57:19.710Z,86.88
2024-04-08T06:59:46.702Z,86.96
2024-04-08T07:02:13.870Z,86.82
2024-04-08T07:04:40.578Z,86.60
2024-04-08T07:07:07.465Z,86.69
2024-04-08T07:09:34.485Z,86.92
2024-04-08T07:12:02.732Z,86.72
2024-04-08T07:14:29.811Z,87.16
2024-04-08T07:16:56.851Z,86.80
2024-04-08T07:19:23.732Z,86.77
2024-04-08T07:21:53.342Z,86.53
2024-04-08T07:24:22.071Z,86.59
2024-04-08T07:26:49.229Z,86.29
2024-04-08T07:29:16.603Z,86.66
2024-04-08T07:31:43.561Z,86.73
2024-04-08T07:34:10.372Z,86.78
2024-04-08T07:36:37.198Z,86.54
2024-04-08T07:39:04.425Z,86.71
2024-04-08T07:41:31.429Z,86.81
2024-04-08T07:43:58.212Z,86.73
2024-04-08T07:46:25.365Z,87.32
2024-04-08T07:48:52.147Z,87.75
2024-04-08T07:51:18.914Z,87.63
2024-04-08T07:53:46.140Z,87.76
2024-04-08T07:56:13.090Z,87.28
2024-04-08T07:58:40.029Z,87.55
2024-04-08T08:01:09.052Z,87.08
2024-04-08T08:03:36.081Z,86.82
2024-04-08T08:06:06.221Z,86.72
2024-04-08T08:08:35.308Z,86.71
2024-04-08T08:11:05.991Z,86.88
2024-04-08T08:13:33.510Z,86.79
2024-04-08T08:16:01.684Z,86.25
2024-04-08T08:18:29.119Z,85.52
2024-04-08T08:20:56.845Z,85.25
2024-04-08T08:23:23.950Z,84.43
2024-04-08T08:25:51.067Z,82.96
2024-04-08T08:28:17.826Z,81.84
2024-04-08T08:30:44.827Z,81.71
2024-04-08T08:33:11.898Z,81.09
2024-04-08T08:35:39.328Z,81.28
2024-04-08T08:38:06.276Z,80.74
2024-04-08T08:40:38.963Z,79.72
2024-04-08T08:43:06.655Z,79.47
2024-04-08T08:45:34.835Z,79.02
2024-04-08T08:48:01.864Z,78.14
2024-04-08T08:50:29.957Z,77.92
2024-04-08T08:52:57.132Z,77.48
2024-04-08T08:55:26.204Z,76.73
2024-04-08T08:57:54.921Z,76.01
2024-04-08T09:00:21.754Z,76.06
2024-04-08T09:02:49.834Z,75.42
2024-04-08T09:05:16.670Z,75.00
2024-04-08T09:07:43.525Z,73.88
2024-04-08T09:10:10.439Z,73.70
2024-04-08T09:12:42.848Z,73.51
2024-04-08T09:15:13.699Z,72.72
2024-04-08T09:17:40.604Z,72.43
2024-04-08T09:20:08.260Z,72.30
2024-04-08T09:22:36.575Z,71.85
2024-04-08T09:25:03.480Z,71.82
2024-04-08T09:27:30.353Z,71.30
2024-04-08T09:29:57.244Z,70.86
2024-04-08T09:32:24.340Z,70.54
2024-04-08T09:34:51.081Z,70.10
2024-04-08T09:37:21.707Z,70.18
2024-04-08T09:39:49.791Z,68.46
2024-04-08T09:42:17.677Z,69.22
2024-04-08T09:44:46.166Z,68.19
2024-04-08T09:47:14.226Z,67.65
2024-04-08T09:49:48.131Z,67.32
2024-04-08T09:52:17.799Z,67.95
2024-04-08T09:54:44.708Z,67.51
2024-04-08T09:57:16.922Z,67.50
2024-04-08T09:59:46.835Z,67.21
2024-04-08T10:02:19.287Z,67.20
2024-04-08T10:04:54.269Z,66.33
2024-04-08T10:07:21.246Z,66.42
2024-04-08T10:09:48.149Z,66.07
2024-04-08T10:12:14.991Z,66.02
2024-04-08T10:14:42.314Z,65.76
2024-04-08T10:17:10.238Z,65.44
2024-04-08T10:19:37.241Z,65.47
2024-04-08T10:22:04.149Z,65.18
2024-04-08T10:24:40.493Z,65.27
2024-04-08T10:27:10.037Z,65.31
2024-04-08T10:29:37.444Z,64.71
2024-04-08T10:32:05.454Z,64.10
2024-04-08T10:34:35.329Z,63.96
2024-04-08T10:37:02.586Z,63.32
2024-04-08T10:39:29.965Z,63.00
2024-04-08T10:41:59.607Z,62.44
2024-04-08T10:44:33.068Z,62.63
2024-04-08T10:47:00.497Z,62.38
2024-04-08T10:49:27.771Z,62.23
2024-04-08T10:51:56.806Z,62.08
2024-04-08T10:54:23.729Z,62.00
2024-04-08T10:56:51.103Z,61.56
2024-04-08T10:59:17.869Z,61.44
2024-04-08T11:01:45.464Z,60.38
2024-04-08T11:04:13.621Z,60.33
2024-04-08T11:06:41.006Z,59.38
2024-04-08T11:09:08.151Z,59.20
2024-04-08T11:11:34.903Z,59.26
2024-04-08T11:14:05.740Z,59.01
2024-04-08T11:16:34.033Z,58.88
2024-04-08T11:19:02.356Z,58.61
2024-04-08T11:21:29.496Z,57.88
2024-04-08T11:23:56.455Z,57.80
2024-04-08T11:26:23.946Z,57.83
2024-04-08T11:28:50.759Z,57.82
2024-04-08T11:31:17.582Z,57.89
2024-04-08T11:33:44.526Z,57.83
2024-04-08T11:36:11.469Z,57.87
2024-04-08T11:38:42.765Z,57.86
2024-04-08T11:41:09.725Z,57.24
2024-04-08T11:43:36.735Z,57.03
2024-04-08T11:46:05.092Z,56.44
2024-04-08T11:48:32.882Z,56.27
2024-04-08T11:50:59.978Z,56.32
2024-04-08T11:53:27.030Z,56.34
2024-04-08T11:55:53.956Z,56.19
2024-04-08T11:58:20.691Z,56.16
2024-04-08T12:00:47.758Z,56.23
2024-04-08T12:03:14.844Z,56.18
2024-04-08T12:05:42.314Z,56.19
2024-04-08T12:08:09.540Z,55.33
2024-04-08T12:10:36.588Z,54.61
2024-04-08T12:13:29.477Z,54.55
2024-04-08T12:15:56.304Z,54.92
2024-04-08T12:18:23.120Z,55.13
2024-04-08T12:20:50.130Z,55.27
2024-04-08T12:23:17.036Z,54.94
2024-04-08T12:25:44.304Z,55.51
2024-04-08T12:28:11.166Z,55.15
2024-04-08T12:30:38.982Z,55.20
2024-04-08T12:33:05.866Z,55.44
2024-04-08T12:35:32.802Z,55.34
2024-04-08T12:38:00.805Z,55.34
2024-04-08T12:40:27.965Z,56.10
2024-04-08T12:42:54.725Z,56.03
2024-04-08T12:45:22.280Z,55.93
2024-04-08T12:47:49.372Z,55.37
2024-04-08T12:50:16.385Z,55.85
2024-04-08T12:52:43.337Z,56.18
2024-04-08T12:55:10.620Z,55.95
2024-04-08T12:57:37.761Z,56.20
2024-04-08T13:00:10.411Z,56.47
2024-04-08T13:02:40.555Z,56.59
2024-04-08T13:05:07.651Z,56.88
2024-04-08T13:07:34.857Z,56.80
2024-04-08T13:10:01.750Z,56.59
2024-04-08T13:12:29.387Z,56.61
2024-04-08T13:14:56.173Z,56.57
2024-04-08T13:17:23.919Z,56.77
2024-04-08T13:19:50.846Z,57.05
2024-04-08T13:22:17.575Z,57.69
2024-04-08T13:24:44.528Z,57.82
2024-04-08T13:27:11.507Z,58.06
2024-04-08T13:29:38.295Z,58.23
2024-04-08T13:32:05.635Z,58.36
2024-04-08T13:34:32.712Z,58.49
2024-04-08T13:37:01.229Z,59.02
2024-04-08T13:39:28.249Z,58.69
2024-04-08T13:41:55.156Z,58.76
2024-04-08T13:44:22.223Z,59.11
2024-04-08T13:46:49.265Z,58.88
2024-04-08T13:49:16.350Z,59.33
2024-04-08T13:51:43.075Z,59.35
2024-04-08T13:54:10.126Z,59.35
2024-04-08T13:56:37.590Z,59.56
2024-04-08T13:59:04.350Z,59.61
2024-04-08T14:01:31.583Z,59.80
2024-04-08T14:04:00.133Z,59.89
2024-04-08T14:06:27.939Z,60.05
2024-04-08T14:08:55.022Z,59.96
2024-04-08T14:11:22.344Z,59.98
2024-04-08T14:13:49.307Z,59.85
2024-04-08T14:16:16.372Z,59.88
2024-04-08T14:18:43.497Z,60.07
2024-04-08T14:21:11.051Z,59.98
2024-04-08T14:23:38.112Z,60.06
2024-04-08T14:26:05.102Z,60.25
2024-04-08T14:28:32.057Z,59.84
2024-04-08T14:30:59.122Z,60.17
2024-04-08T14:33:26.325Z,59.58
2024-04-08T14:35:53.716Z,59.48
2024-04-08T14:38:39.658Z,59.83
2024-04-08T14:41:09.575Z,59.88
2024-04-08T14:43:43.964Z,60.04
2024-04-08T14:46:18.790Z,59.76
2024-04-08T14:48:46.350Z,60.05
2024-04-08T14:51:14.447Z,60.30
2024-04-08T14:53:45.333Z,60.41
2024-04-08T14:56:13.354Z,60.31
2024-04-08T14:58:45.417Z,60.57
2024-04-08T15:01:14.963Z,60.47
2024-04-08T15:03:41.996Z,60.68
2024-04-08T15:06:09.074Z,61.30
2024-04-08T15:08:38.010Z,61.35
2024-04-08T15:11:06.266Z,61.41
2024-04-08T15:13:33.080Z,61.62
2024-04-08T15:16:00.068Z,61.36
2024-04-08T15:18:27.186Z,61.75
2024-04-08T15:20:54.657Z,62.02
2024-04-08T15:23:21.920Z,62.02
2024-04-08T15:25:48.705Z,62.21
2024-04-08T15:28:15.473Z,62.83
2024-04-08T15:30:43.271Z,62.85
2024-04-08T15:33:10.501Z,62.62
2024-04-08T15:35:37.422Z,62.77
2024-04-08T15:38:04.515Z,63.01
2024-04-08T15:40:31.341Z,62.89
2024-04-08T15:42:58.104Z,62.16
2024-04-08T15:45:25.320Z,62.51
2024-04-08T15:47:52.391Z,62.36
2024-04-08T15:50:19.334Z,62.47
2024-04-08T15:52:46.398Z,62.05
2024-04-08T15:55:13.122Z,61.76
2024-04-08T15:57:40.287Z,62.50
2024-04-08T16:00:08.195Z,62.32
2024-04-08T16:02:35.135Z,62.64
2024-04-08T16:05:02.939Z,62.53
2024-04-08T16:07:31.565Z,63.21
2024-04-08T16:09:58.531Z,63.97
2024-04-08T16:12:26.477Z,63.67
2024-04-08T16:14:53.737Z,63.45
2024-04-08T16:17:20.495Z,63.51
2024-04-08T16:19:51.415Z,63.68
2024-04-08T16:22:20.383Z,63.87
2024-04-08T16:24:48.498Z,64.02
2024-04-08T16:27:15.581Z,64.50
2024-04-08T16:29:42.418Z,64.01
2024-04-08T16:32:09.153Z,64.22
2024-04-08T16:34:35.992Z,64.77
2024-04-08T16:37:04.440Z,64.67
2024-04-08T16:39:31.290Z,65.11
2024-04-08T16:41:58.173Z,65.38
2024-04-08T16:44:24.979Z,65.72
2024-04-08T16:46:52.323Z,65.77
2024-04-08T16:49:19.838Z,65.96
2024-04-08T16:54:14.294Z,66.59
2024-04-08T16:56:41.060Z,66.51
2024-04-08T16:59:08.149Z,66.78
2024-04-08T17:01:35.082Z,66.77
2024-04-08T17:04:05.841Z,67.55
2024-04-08T17:06:40.369Z,67.27
2024-04-08T17:09:08.434Z,67.28
2024-04-08T17:11:35.274Z,67.97
2024-04-08T17:14:02.235Z,68.03
2024-04-08T17:16:29.176Z,68.04
2024-04-08T17:18:56.260Z,68.38
2024-04-08T17:21:24.942Z,68.61
2024-04-08T17:23:51.804Z,68.72
2024-04-08T17:26:18.701Z,69.00
2024-04-08T17:28:46.182Z,68.89
2024-04-08T17:31:12.942Z,69.15
2024-04-08T17:33:39.803Z,69.10
2024-04-08T17:36:08.254Z,69.67
2024-04-08T17:38:39.925Z,69.66
2024-04-08T17:41:09.327Z,70.00
2024-04-08T17:43:41.076Z,70.24
2024-04-08T17:46:08.431Z,70.30
2024-04-08T17:48:37.044Z,70.35
2024-04-08T17:51:06.889Z,70.45
2024-04-08T17:53:36.752Z,70.80
2024-04-08T17:56:10.046Z,70.69
2024-04-08T17:58:38.322Z,70.94
2024-04-08T18:01:18.057Z,71.15
2024-04-08T18:03:45.481Z,71.20
2024-04-08T18:06:14.203Z,71.42
2024-04-08T18:08:45.138Z,71.91
2024-04-08T18:11:13.907Z,71.48
2024-04-08T18:13:41.880Z,72.01
2024-04-08T18:16:20.617Z,72.26
2024-04-08T18:18:52.266Z,72.22
2024-04-08T18:21:21.201Z,72.33
2024-04-08T18:23:50.496Z,72.69
2024-04-08T18:26:20.972Z,73.02
2024-04-08T18:28:56.830Z,73.28
2024-04-08T18:31:23.737Z,73.08
2024-04-08T18:33:52.072Z,73.41
2024-04-08T18:36:19.504Z,73.58
2024-04-08T18:38:47.222Z,73.76
2024-04-08T18:41:19.342Z,73.99
2024-04-08T18:43:46.448Z,74.07
2024-04-08T18:46:24.041Z,74.82
2024-04-08T18:48:51.685Z,74.78
2024-04-08T18:51:18.886Z,74.97
2024-04-08T18:53:46.477Z,74.91
2024-04-08T18:56:13.672Z,75.02
2024-04-08T18:58:40.557Z,75.59
2024-04-08T19:01:13.636Z,75.55
2024-04-08T19:03:44.530Z,75.74
2024-04-08T19:06:12.752Z,76.25
2024-04-08T19:08:41.129Z,76.50
2024-04-08T19:11:08.214Z,76.77
2024-04-08T19:13:35.027Z,76.97
2024-04-08T19:16:04.419Z,77.13
2024-04-08T19:18:34.223Z,77.43
2024-04-08T19:21:07.076Z,77.73
2024-04-08T19:23:34.188Z,77.58
2024-04-08T19:26:02.402Z,77.81
2024-04-08T19:28:29.837Z,77.78
2024-04-08T19:30:57.292Z,77.99
2024-04-08T19:33:24.278Z,78.36
2024-04-08T19:35:56.311Z,78.79
2024-04-08T19:38:26.787Z,78.59
2024-04-08T19:41:00.023Z,78.92
2024-04-08T19:43:26.959Z,78.89
2024-04-08T19:46:01.891Z,79.05
2024-04-08T19:48:33.928Z,79.43
2024-04-08T19:51:19.993Z,80.26
2024-04-08T19:53:51.047Z,80.41
2024-04-08T19:56:20.853Z,80.52
2024-04-08T19:58:48.275Z,80.92
2024-04-08T20:01:15.248Z,80.51
2024-04-08T20:03:43.023Z,80.85
2024-04-08T20:06:09.960Z,80.92
2024-04-08T20:08:37.281Z,80.67
2024-04-08T20:11:12.222Z,81.20
2024-04-08T20:13:43.087Z,81.24
2024-04-08T20:16:16.296Z,81.15
2024-04-08T20:18:43.941Z,81.32
2024-04-08T20:21:11.378Z,81.52
2024-04-08T20:23:38.268Z,81.64
2024-04-08T20:26:06.524Z,81.65
2024-04-08T20:28:33.572Z,81.71
2024-04-08T20:31:02.842Z,81.89
2024-04-08T20:33:30.137Z,82.07
2024-04-08T20:36:01.602Z,82.42
2024-04-08T20:38:29.686Z,82.55
2024-04-08T20:41:00.443Z,83.10
2024-04-08T20:43:27.139Z,83.39
2024-04-08T20:45:57.165Z,83.45
2024-04-08T20:48:24.111Z,83.41
2024-04-08T20:50:58.655Z,83.73
2024-04-08T20:53:26.322Z,83.85
2024-04-08T20:56:07.343Z,84.23
2024-04-08T20:58:35.074Z,84.57
2024-04-08T21:01:10.276Z,84.45
2024-04-08T21:03:39.008Z,84.33
2024-04-08T21:06:10.716Z,84.74
2024-04-08T21:08:42.485Z,84.81
2024-04-08T21:11:12.037Z,85.17
2024-04-08T21:13:39.430Z,85.19
2024-04-08T21:16:07.229Z,85.23
2024-04-08T21:18:35.614Z,85.31
2024-04-08T21:21:05.323Z,85.84
2024-04-08T21:23:33.264Z,85.36
2024-04-08T21:26:07.180Z,85.81
2024-04-08T21:28:33.909Z,85.77
2024-04-08T21:31:00.721Z,86.15
2024-04-08T21:33:27.998Z,86.15
2024-04-08T21:35:56.196Z,85.97
2024-04-08T21:38:23.325Z,85.85
2024-04-08T21:40:58.015Z,86.17
2024-04-08T21:43:25.256Z,86.12
2024-04-08T21:45:57.862Z,86.33
2024-04-08T21:48:25.607Z,85.98
2024-04-08T21:50:53.467Z,86.07
2024-04-08T21:53:27.880Z,86.27
2024-04-08T21:55:56.951Z,86.29
2024-04-08T21:58:24.159Z,86.38
2024-04-08T22:00:51.374Z,86.43
2024-04-08T22:03:18.421Z,86.40
2024-04-08T22:05:45.626Z,86.87
2024-04-08T22:08:12.545Z,86.81
2024-04-08T22:10:39.558Z,86.79
2024-04-08T22:13:07.672Z,86.76
2024-04-08T22:15:35.675Z,87.25
2024-04-08T22:18:03.146Z,87.25
2024-04-08T22:20:30.018Z,87.08
2024-04-08T22:22:56.842Z,87.27
2024-04-08T22:25:23.731Z,87.63
2024-04-08T22:27:50.496Z,87.50
2024-04-08T22:30:17.908Z,87.96
2024-04-08T22:32:45.409Z,88.16
2024-04-08T22:35:12.190Z,88.03
2024-04-08T22:37:39.179Z,87.90
2024-04-08T22:40:11.280Z,87.95
2024-04-08T22:42:38.125Z,88.22
2024-04-08T22:45:05.402Z,88.41
2024-04-08T22:47:32.507Z,88.31
2024-04-08T22:49:59.327Z,88.67
2024-04-08T22:52:26.166Z,88.73
2024-04-08T22:54:53.150Z,88.62
2024-04-08T22:57:19.863Z,88.82
2024-04-08T22:59:46.686Z,88.98
2024-04-08T23:02:13.577Z,88.93
2024-04-08T23:04:41.016Z,88.86
2024-04-08T23:07:08.028Z,88.92
2024-04-08T23:09:35.433Z,88.91
2024-04-08T23:12:02.405Z,89.08
2024-04-08T23:14:29.531Z,89.17
2024-04-08T23:16:56.531Z,89.18
2024-04-08T23:19:23.509Z,89.17
2024-04-08T23:21:50.322Z,89.03
2024-04-08T23:24:17.280Z,89.43
2024-04-08T23:26:44.015Z,89.42
2024-04-08T23:29:10.708Z,89.34
2024-04-08T23:31:37.519Z,89.48
2024-04-08T23:34:07.743Z,89.52
2024-04-08T23:36:34.936Z,89.44
2024-04-08T23:39:01.949Z,89.50
2024-04-08T23:41:28.745Z,89.44
2024-04-08T23:43:56.079Z,89.56
2024-04-08T23:46:22.812Z,89.45
2024-04-08T23:48:49.713Z,89.41
2024-04-08T23:51:16.694Z,89.87
2024-04-08T23:53:44.569Z,89.81
2024-04-08T23:56:11.361Z,89.64
2024-04-08T23:58:38.304Z,89.85
